MMCS/CJS METAR and TAF weather

Enter ICAO airport designator
Station Type Date Time Source
MMCS METAR 2022/06/27 17:40 UTC NOAA

MMCS 271740Z 10013KT 10SM FEW100 SCT250 28/12 A3031 RMK SLP142 57009 917 8/031


Station Type Date Time Source
MMCS Decoded METAR 2022/06/27 17:40 UTC NOAA

Ciudad Juarez International , Mexico (MMCS) 31-38N 106-26W
Jun 27, 2022 - 01:40 PM EDT / 2022.06.27 1740 UTC
Wind: from the E (100 degrees) at 15 MPH (13 KT):0
Visibility: 10 mile(s):0
Sky conditions: partly cloudy
Temperature: 82 F (28 C)
Dew Point: 53 F (12 C)
Relative Humidity: 37%
Pressure (altimeter): 30.31 in. Hg (1026 hPa)
Pressure tendency: 0.03 inches (0.9 hPa) lower than three hours ago
ob: MMCS 271740Z 10013KT 10SM FEW100 SCT250 28/12 A3031 RMK SLP142 57009 917 8/031
cycle: 17

Station Type Date Time Source
MMCS TAF 2022/06/27 18:48 UTC NOAA

TAF MMCS 271644Z 2718/2818 12015KT P6SM SCT040
FM272200 09015KT P6SM BKN040CB
TEMPO 2723/2803 VRB25KT 5SM TSRA
FM280600 06010KT P6SM BKN020 BKN080 PROB40 2810/2814 5SM -RA

Example: see airport list